Time;durP1;ratioP1;P1;durP2;ratioP2;P2;SDS_P1;SDS_P2;PMS_P1;PMS_P2;Temp;Humidity;BMP_temperature;BMP_pressure;BME280_temperature;BME280_humidity;BME280_pressure;Samples;Min_cycle;Max_cycle;Signal;HPM_P1;HPM_P2
2024/03/21 00:03:40;;;;;;;5.53;2.05;;;;;;;8.96;60.33;100185.16;10412861;28;21003;-79
2024/03/21 00:08:41;;;;;;;6.90;1.60;;;;;;;8.92;60.67;100186.22;10397823;28;20060;-79
2024/03/21 00:13:42;;;;;;;4.63;1.77;;;;;;;8.72;60.86;100185.44;10412462;28;20063;-79
2024/03/21 00:18:43;;;;;;;6.45;2.35;;;;;;;8.54;61.22;100185.47;10411854;28;20092;-79
2024/03/21 00:23:44;;;;;;;5.03;1.98;;;;;;;8.54;61.45;100188.06;10413109;28;20127;-79
2024/03/21 00:28:46;;;;;;;3.47;2.20;;;;;;;8.60;61.53;100182.56;10427171;28;20136;-79
2024/03/21 00:33:49;;;;;;;4.45;2.47;;;;;;;8.58;61.22;100184.41;10419502;28;20477;-79
2024/03/21 00:38:50;;;;;;;5.55;2.17;;;;;;;8.50;61.37;100192.59;10446307;28;20088;-78
2024/03/21 00:43:51;;;;;;;4.07;1.98;;;;;;;8.51;61.60;100190.81;10428414;28;20096;-79
2024/03/21 00:48:52;;;;;;;4.45;2.42;;;;;;;8.51;61.75;100177.78;10411768;28;20053;-78
2024/03/21 00:53:53;;;;;;;6.10;2.45;;;;;;;8.43;61.73;100182.50;10413099;28;20053;-79
2024/03/21 00:58:58;;;;;;;5.78;2.25;;;;;;;8.35;61.73;100192.44;10427022;28;20052;-79
2024/03/21 01:03:59;;;;;;;5.60;1.80;;;;;;;8.30;61.65;100184.88;10418899;28;20056;-78
2024/03/21 01:09:00;;;;;;;3.55;1.90;;;;;;;8.25;61.93;100184.22;10410232;28;20067;-79
2024/03/21 01:14:01;;;;;;;4.00;1.80;;;;;;;8.21;62.00;100185.28;10396756;28;20140;-78
2024/03/21 01:19:02;;;;;;;5.47;2.50;;;;;;;8.20;61.91;100177.53;10410117;28;20152;-79
2024/03/21 01:24:03;;;;;;;3.03;1.95;;;;;;;8.13;61.73;100178.72;10426775;28;20091;-79
2024/03/21 01:29:05;;;;;;;5.43;2.60;;;;;;;8.02;62.18;100182.63;10412557;28;20100;-79
2024/03/21 01:34:06;;;;;;;4.03;1.80;;;;;;;7.97;62.15;100181.16;10432974;28;20151;-79
2024/03/21 01:39:07;;;;;;;3.72;2.13;;;;;;;8.04;62.02;100191.22;10449614;28;20073;-78
2024/03/21 01:44:16;;;;;;;9.95;2.42;;;;;;;8.19;62.31;100184.50;10451203;28;20476;-79
2024/03/21 01:49:17;;;;;;;3.80;1.77;;;;;;;8.32;61.85;100184.78;10443422;28;20496;-78
2024/03/21 01:54:18;;;;;;;3.75;1.90;;;;;;;8.43;61.75;100182.50;10434056;28;20509;-78
2024/03/21 01:59:19;;;;;;;9.85;2.28;;;;;;;8.41;61.87;100176.53;10401675;28;20148;-78
2024/03/21 02:04:20;;;;;;;6.93;2.10;;;;;;;8.36;61.84;100181.97;10416892;28;20084;-78
2024/03/21 02:09:23;;;;;;;3.30;1.85;;;;;;;8.25;61.86;100175.56;10416154;28;20131;-78
2024/03/21 02:14:27;;;;;;;2.88;1.83;;;;;;;8.21;62.06;100184.41;10439541;28;20088;-78
2024/03/21 02:19:29;;;;;;;3.00;1.80;;;;;;;8.21;62.20;100189.63;10440823;28;20128;-78
2024/03/21 02:24:30;;;;;;;2.90;1.77;;;;;;;8.21;61.97;100194.84;10442239;28;20084;-79
2024/03/21 02:29:31;;;;;;;3.72;1.73;;;;;;;8.07;61.95;100192.00;10417258;28;20541;-78
2024/03/21 02:34:32;;;;;;;3.80;1.85;;;;;;;8.04;62.15;100200.78;10449403;28;20139;-78
2024/03/21 02:39:33;;;;;;;5.43;2.75;;;;;;;7.81;62.16;100198.38;10432794;28;20079;-78
2024/03/21 02:44:34;;;;;;;4.88;1.63;;;;;;;7.75;62.54;100188.25;10415979;28;20068;-78
2024/03/21 02:49:35;;;;;;;4.13;1.92;;;;;;;7.76;62.48;100192.50;10415532;28;20164;-78
2024/03/21 02:54:36;;;;;;;3.80;1.60;;;;;;;7.71;62.45;100190.09;10416054;28;20056;-78
2024/03/21 02:59:37;;;;;;;3.60;2.08;;;;;;;7.71;62.55;100191.88;10448968;28;20095;-78
2024/03/21 03:04:38;;;;;;;4.05;1.80;;;;;;;7.59;62.44;100195.84;10415260;28;20113;-79
2024/03/21 03:09:39;;;;;;;4.15;2.15;;;;;;;7.48;62.66;100205.91;10414885;28;20139;-78
2024/03/21 03:14:41;;;;;;;6.30;1.92;;;;;;;7.36;62.87;100213.38;10399984;28;20111;-78
2024/03/21 03:19:43;;;;;;;3.75;2.10;;;;;;;7.37;63.06;100212.44;10439657;28;20076;-78
2024/03/21 03:24:43;;;;;;;3.97;2.13;;;;;;;7.36;62.94;100201.22;10431600;28;20425;-78
2024/03/21 03:29:45;;;;;;;2.85;1.85;;;;;;;7.38;62.98;100204.59;10398378;28;20091;-78
2024/03/21 03:40:09;;;;;;;4.22;1.95;;;;;;;7.37;63.00;100202.03;10413766;28;20065;-78
2024/03/21 03:45:10;;;;;;;5.25;2.25;;;;;;;7.39;62.88;100205.41;10446637;28;20142;-78
2024/03/21 03:50:11;;;;;;;4.72;1.90;;;;;;;7.30;63.29;100201.47;10447838;28;21306;-78
2024/03/21 03:55:12;;;;;;;5.72;1.95;;;;;;;7.24;62.98;100190.47;10428177;28;20056;-78
2024/03/21 04:00:13;;;;;;;3.47;2.00;;;;;;;7.17;63.44;100197.69;10396686;28;20083;-78
2024/03/21 04:05:17;;;;;;;6.40;1.85;;;;;;;7.05;63.41;100203.38;10412175;28;20072;-79
2024/03/21 04:10:18;;;;;;;3.67;1.90;;;;;;;7.18;63.19;100218.41;10412760;28;20120;-78
2024/03/21 04:15:19;;;;;;;3.25;1.70;;;;;;;7.20;63.18;100202.78;10412191;28;20171;-78
2024/03/21 04:20:20;;;;;;;3.78;1.65;;;;;;;7.18;63.19;100209.78;10418531;28;20061;-78
2024/03/21 04:25:21;;;;;;;4.20;1.83;;;;;;;7.09;63.27;100211.00;10430471;28;20103;-79
2024/03/21 04:30:22;;;;;;;7.68;2.05;;;;;;;7.11;63.50;100210.94;10412744;28;20060;-78
2024/03/21 04:35:23;;;;;;;6.80;2.05;;;;;;;7.15;63.23;100221.16;10428596;28;20652;-78
2024/03/21 04:40:24;;;;;;;3.58;1.88;;;;;;;7.11;63.30;100229.16;10443417;28;20057;-78
2024/03/21 04:45:25;;;;;;;6.22;2.40;;;;;;;7.01;63.44;100235.63;10429229;28;20045;-78
2024/03/21 04:50:27;;;;;;;3.30;1.80;;;;;;;7.05;63.55;100255.41;10394606;28;20398;-78
2024/03/21 04:55:28;;;;;;;4.75;1.80;;;;;;;7.04;63.55;100248.53;10437635;28;20189;-78
2024/03/21 05:00:29;;;;;;;3.65;1.92;;;;;;;7.09;63.48;100250.03;10428126;28;20684;-79
2024/03/21 05:05:30;;;;;;;4.22;2.42;;;;;;;7.19;63.44;100250.47;10448494;28;20179;-78
2024/03/21 05:10:31;;;;;;;7.85;2.03;;;;;;;7.16;63.25;100256.66;10418702;28;20157;-79
2024/03/21 05:15:32;;;;;;;6.65;2.10;;;;;;;7.12;63.27;100255.06;10437338;28;20459;-78
2024/03/21 05:20:35;;;;;;;2.92;1.60;;;;;;;7.10;63.20;100258.69;10421972;28;20115;-78
2024/03/21 05:25:36;;;;;;;2.38;1.38;;;;;;;7.12;63.23;100267.25;10419108;28;20118;-79
2024/03/21 05:30:38;;;;;;;3.15;1.70;;;;;;;7.17;63.40;100267.91;10451081;28;20151;-78
2024/03/21 05:35:39;;;;;;;6.20;2.00;;;;;;;7.20;63.51;100276.41;10424570;28;20191;-78
2024/03/21 05:40:43;;;;;;;3.45;2.05;;;;;;;7.29;63.49;100290.81;10401360;28;20091;-78
2024/03/21 05:45:44;;;;;;;3.78;1.90;;;;;;;7.32;63.31;100290.72;10451056;28;20139;-79
2024/03/21 05:50:45;;;;;;;3.70;1.90;;;;;;;7.36;63.37;100291.44;10433722;28;20053;-79
2024/03/21 05:56:13;;;;;;;5.47;1.98;;;;;;;7.43;63.38;100291.09;10402529;28;20068;-79
2024/03/21 06:06:17;;;;;;;7.10;2.30;;;;;;;7.38;63.43;100310.41;10420190;28;20103;-79
2024/03/21 06:11:18;;;;;;;2.70;1.70;;;;;;;7.51;63.58;100311.63;10400603;28;20132;-78
2024/03/21 06:16:19;;;;;;;4.93;2.38;;;;;;;7.73;62.88;100321.06;10455299;28;20477;-79
2024/03/21 06:21:20;;;;;;;5.13;2.72;;;;;;;7.75;62.90;100314.03;10417070;28;20057;-78
2024/03/21 06:26:21;;;;;;;6.72;2.53;;;;;;;7.75;62.87;100328.81;10416786;28;20049;-79
2024/03/21 06:31:22;;;;;;;3.78;2.05;;;;;;;7.85;62.93;100325.75;10399087;28;20472;-78
2024/03/21 06:36:23;;;;;;;3.65;1.88;;;;;;;7.85;63.09;100340.53;10431673;28;20172;-78
2024/03/21 06:41:24;;;;;;;3.22;2.08;;;;;;;7.93;63.07;100339.31;10414390;28;20118;-78
2024/03/21 06:46:25;;;;;;;3.17;1.73;;;;;;;7.99;62.98;100346.88;10451527;28;20052;-78
2024/03/21 06:51:26;;;;;;;4.68;1.75;;;;;;;8.03;63.17;100352.78;10421599;28;20049;-78
2024/03/21 06:56:27;;;;;;;3.60;2.08;;;;;;;8.10;63.19;100364.66;10451237;28;20524;-78
2024/03/21 07:01:28;;;;;;;5.20;1.95;;;;;;;8.17;62.96;100373.91;10415485;28;20044;-78
2024/03/21 07:06:29;;;;;;;5.25;2.03;;;;;;;8.30;63.00;100369.88;10398282;28;20076;-78
2024/03/21 07:11:30;;;;;;;3.65;2.17;;;;;;;8.24;63.13;100374.50;10429102;28;20083;-78
2024/03/21 07:16:31;;;;;;;5.20;2.55;;;;;;;8.55;63.21;100365.25;10431795;28;20056;-78
2024/03/21 07:21:33;;;;;;;11.15;2.88;;;;;;;8.91;63.09;100375.81;10414619;28;20090;-79
2024/03/21 07:26:34;;;;;;;7.20;2.17;;;;;;;9.09;62.65;100388.00;10431749;28;20545;-78
2024/03/21 07:31:35;;;;;;;4.10;2.25;;;;;;;9.29;62.52;100395.75;10446941;28;20143;-79
2024/03/21 07:36:35;;;;;;;3.88;2.72;;;;;;;9.78;62.19;100401.25;10429382;28;20938;-78
2024/03/21 07:41:37;;;;;;;7.72;3.35;;;;;;;10.30;62.08;100403.78;10431271;28;20512;-79
2024/03/21 07:46:38;;;;;;;13.38;5.35;;;;;;;10.67;61.98;100410.56;10413748;28;20148;-79
2024/03/21 07:51:39;;;;;;;12.98;6.53;;;;;;;11.16;61.80;100412.28;10396985;28;20056;-79
2024/03/21 07:56:40;;;;;;;13.55;7.70;;;;;;;11.71;61.17;100411.84;10413458;28;20080;-79
2024/03/21 08:01:41;;;;;;;20.17;8.63;;;;;;;12.03;60.49;100422.16;10429897;28;20481;-79
2024/03/21 08:06:42;;;;;;;17.15;8.48;;;;;;;12.35;60.38;100429.97;10446098;28;20057;-79
2024/03/21 08:11:43;;;;;;;24.55;13.25;;;;;;;12.52;59.84;100437.66;10419663;28;20052;-79
2024/03/21 08:16:44;;;;;;;28.38;13.88;;;;;;;12.55;59.67;100440.97;10397008;28;20087;-79
2024/03/21 08:21:45;;;;;;;34.60;16.90;;;;;;;12.40;60.22;100454.13;10413538;28;20045;-79
2024/03/21 08:26:46;;;;;;;29.88;14.85;;;;;;;12.58;60.10;100458.28;10428992;28;20477;-79
2024/03/21 08:31:48;;;;;;;31.73;15.30;;;;;;;12.58;60.01;100464.38;10403726;28;20080;-79
2024/03/21 08:36:50;;;;;;;29.75;14.60;;;;;;;13.02;59.36;100474.84;10385904;28;20139;-79
2024/03/21 08:41:51;;;;;;;30.00;13.00;;;;;;;13.34;58.60;100484.19;10406069;28;20121;-79
2024/03/21 08:46:52;;;;;;;32.05;13.82;;;;;;;12.98;58.63;100485.63;10384692;28;20134;-79
2024/03/21 08:51:54;;;;;;;27.50;12.75;;;;;;;13.10;57.89;100500.63;10388380;28;20136;-78
2024/03/21 08:56:55;;;;;;;27.80;13.27;;;;;;;13.64;57.30;100507.72;10394091;28;20095;-79
2024/03/21 09:01:57;;;;;;;26.75;11.57;;;;;;;13.75;57.09;100516.66;10394601;28;20140;-79
2024/03/21 09:06:58;;;;;;;23.65;12.25;;;;;;;14.39;55.83;100517.75;10367100;28;20057;-79
2024/03/21 09:12:00;;;;;;;21.92;11.15;;;;;;;14.77;54.63;100515.19;10383376;28;20275;-79
2024/03/21 09:17:01;;;;;;;17.30;9.55;;;;;;;14.69;54.42;100517.50;10399739;28;20524;-80
2024/03/21 09:22:03;;;;;;;15.10;7.88;;;;;;;14.57;53.98;100525.25;10384640;28;20087;-79
2024/03/21 09:27:04;;;;;;;16.95;8.27;;;;;;;14.67;53.51;100529.94;10382402;28;20071;-79
2024/03/21 09:32:06;;;;;;;15.43;7.57;;;;;;;15.19;53.04;100533.31;10384397;28;20136;-79
2024/03/21 09:37:07;;;;;;;14.60;7.40;;;;;;;15.05;52.77;100533.44;10427931;28;20064;-79
2024/03/21 09:42:16;;;;;;;15.43;7.30;;;;;;;15.29;51.86;100543.13;10425278;28;20059;-79
2024/03/21 09:47:23;;;;;;;15.48;7.13;;;;;;;14.99;52.33;100533.84;10426151;28;20052;-79
2024/03/21 09:52:25;;;;;;;16.17;7.75;;;;;;;14.62;52.67;100545.16;10445391;28;20556;-79
2024/03/21 09:57:26;;;;;;;14.57;7.15;;;;;;;14.07;53.31;100540.00;10403124;28;20055;-79
2024/03/21 10:02:27;;;;;;;12.48;6.90;;;;;;;13.77;53.51;100554.19;10418334;28;20178;-79
2024/03/21 10:07:29;;;;;;;17.05;7.05;;;;;;;14.05;53.15;100550.66;10417442;28;20065;-79
2024/03/21 10:12:30;;;;;;;18.65;8.43;;;;;;;14.08;53.52;100555.72;10418369;28;20099;-79
2024/03/21 10:17:32;;;;;;;15.88;7.75;;;;;;;14.01;53.46;100564.09;10415675;28;20110;-79
2024/03/21 10:22:33;;;;;;;13.32;7.25;;;;;;;13.99;53.51;100555.44;10419183;28;20056;-79
2024/03/21 10:27:36;;;;;;;11.10;5.47;;;;;;;14.20;53.51;100560.19;10423378;28;20094;-79
2024/03/21 10:32:39;;;;;;;11.40;6.25;;;;;;;14.64;52.38;100564.34;10416160;28;20240;-79
2024/03/21 10:37:42;;;;;;;11.38;6.22;;;;;;;14.95;51.80;100561.34;10399745;28;20084;-78
2024/03/21 10:42:56;;;;;;;10.70;4.90;;;;;;;15.31;50.80;100550.91;10450009;28;20063;-79
2024/03/21 10:47:57;;;;;;;10.25;5.43;;;;;;;15.31;50.37;100556.19;10400557;28;20077;-79
2024/03/21 10:53:00;;;;;;;8.23;4.53;;;;;;;15.12;50.89;100551.34;10398653;28;20075;-79
2024/03/21 10:58:03;;;;;;;9.60;5.03;;;;;;;15.24;51.18;100555.78;10439576;28;20394;-80
2024/03/21 11:03:04;;;;;;;9.68;5.20;;;;;;;15.72;50.49;100548.88;10399089;28;20091;-79
2024/03/21 11:08:27;;;;;;;8.18;4.55;;;;;;;15.57;49.01;100544.69;10406791;28;20053;-79
2024/03/21 11:13:29;;;;;;;9.02;5.93;;;;;;;15.41;50.49;100554.59;10406488;28;20061;-79
2024/03/21 11:18:30;;;;;;;8.55;4.78;;;;;;;15.21;49.78;100563.03;10414738;28;20541;-79
2024/03/21 11:23:31;;;;;;;8.93;5.10;;;;;;;15.46;49.13;100568.31;10404848;28;20083;-79
2024/03/21 11:28:32;;;;;;;11.57;5.95;;;;;;;15.72;49.55;100569.97;10423012;28;20041;-80
2024/03/21 11:33:33;;;;;;;10.93;6.22;;;;;;;15.75;49.53;100590.03;10399142;28;20509;-80
2024/03/21 11:38:34;;;;;;;19.02;7.50;;;;;;;16.46;48.29;100585.72;10405236;28;20056;-80
2024/03/21 11:43:36;;;;;;;19.30;9.32;;;;;;;16.17;47.98;100593.06;10356659;28;20118;-80
2024/03/21 11:48:37;;;;;;;14.05;8.23;;;;;;;16.32;48.03;100590.28;10373955;28;20049;-80
2024/03/21 11:53:38;;;;;;;16.92;9.10;;;;;;;16.19;48.63;100599.09;10371722;28;20064;-80
2024/03/21 11:58:39;;;;;;;19.30;9.75;;;;;;;15.99;47.68;100604.97;10380673;28;20061;-79
2024/03/21 12:03:40;;;;;;;12.75;7.28;;;;;;;15.85;48.06;100602.47;10356795;28;20509;-78
2024/03/21 12:08:42;;;;;;;12.15;7.10;;;;;;;16.37;47.58;100612.75;10372463;28;20049;-80
2024/03/21 12:13:43;;;;;;;13.43;6.40;;;;;;;16.20;46.54;100605.22;10360854;28;20659;-78
2024/03/21 12:18:46;;;;;;;12.80;6.40;;;;;;;16.09;46.59;100611.25;10422494;28;20053;-79
2024/03/21 12:23:48;;;;;;;11.73;6.20;;;;;;;15.95;46.33;100627.25;10388710;28;20462;-79
2024/03/21 12:28:49;;;;;;;12.43;6.05;;;;;;;16.02;46.20;100628.47;10355771;28;20135;-79
2024/03/21 12:33:52;;;;;;;13.90;6.80;;;;;;;16.04;46.17;100628.38;10386242;28;20076;-79
2024/03/21 12:38:53;;;;;;;10.93;6.30;;;;;;;15.86;45.76;100637.56;10430391;28;20148;-79
2024/03/21 12:43:56;;;;;;;11.43;5.97;;;;;;;15.72;44.54;100632.41;10395380;28;20152;-79
2024/03/21 12:48:57;;;;;;;12.40;6.13;;;;;;;16.08;45.10;100638.59;10405539;28;20597;-79
2024/03/21 12:53:58;;;;;;;13.50;6.85;;;;;;;16.02;44.03;100640.81;10429653;28;20064;-80
2024/03/21 12:58:59;;;;;;;9.93;5.38;;;;;;;15.85;44.60;100649.09;10412363;28;20471;-79
2024/03/21 13:04:00;;;;;;;12.15;6.00;;;;;;;15.97;44.33;100649.06;10428311;28;20067;-79
2024/03/21 13:09:01;;;;;;;13.27;6.32;;;;;;;15.74;44.48;100651.63;10412927;28;20458;-79
2024/03/21 13:14:02;;;;;;;9.65;5.32;;;;;;;15.69;44.74;100651.97;10395375;28;20151;-79
2024/03/21 13:19:03;;;;;;;11.32;5.80;;;;;;;16.10;44.49;100668.34;10411353;28;20682;-79
2024/03/21 13:24:05;;;;;;;9.98;5.07;;;;;;;16.10;44.53;100668.34;10410821;28;20971;-79
2024/03/21 13:29:06;;;;;;;10.05;5.43;;;;;;;15.93;43.96;100666.06;10417328;28;20056;-79
2024/03/21 13:34:07;;;;;;;10.63;5.63;;;;;;;15.93;44.13;100659.94;10436247;28;20096;-79
2024/03/21 13:39:09;;;;;;;9.45;5.20;;;;;;;15.75;42.65;100656.81;10433616;28;20140;-79
2024/03/21 13:44:10;;;;;;;9.68;5.20;;;;;;;15.89;43.79;100647.94;10427185;28;20048;-79
2024/03/21 13:49:11;;;;;;;8.00;4.75;;;;;;;16.20;43.56;100637.72;10434409;28;20076;-79
2024/03/21 13:54:15;;;;;;;9.63;5.00;;;;;;;15.95;43.48;100636.94;10417272;28;20175;-79
2024/03/21 13:59:16;;;;;;;8.02;4.65;;;;;;;16.12;43.01;100640.06;10418375;28;20075;-79
2024/03/21 14:04:18;;;;;;;9.07;4.72;;;;;;;16.03;43.02;100638.09;10420093;28;20572;-79
2024/03/21 14:09:22;;;;;;;10.60;5.10;;;;;;;15.80;42.32;100630.94;10425463;28;20083;-80
2024/03/21 14:14:24;;;;;;;9.02;4.75;;;;;;;16.11;42.91;100633.09;10417494;28;20454;-80
2024/03/21 14:19:25;;;;;;;9.32;4.95;;;;;;;16.19;42.29;100620.19;10434177;28;20484;-80
2024/03/21 14:24:26;;;;;;;9.32;5.65;;;;;;;16.08;42.92;100614.84;10399211;28;20053;-80
2024/03/21 14:29:27;;;;;;;10.13;5.85;;;;;;;16.16;42.37;100612.50;10451571;28;20131;-80
2024/03/21 14:34:28;;;;;;;10.57;6.75;;;;;;;15.94;42.69;100614.13;10417600;28;20135;-80
2024/03/21 14:39:29;;;;;;;11.02;6.55;;;;;;;16.13;43.04;100598.69;10416781;28;20048;-81
2024/03/21 14:44:30;;;;;;;10.93;6.63;;;;;;;15.97;43.17;100596.31;10417349;28;20615;-80
2024/03/21 14:49:33;;;;;;;9.70;6.38;;;;;;;16.02;42.83;100586.25;10415729;28;20154;-79
2024/03/21 14:54:34;;;;;;;10.23;6.53;;;;;;;16.05;42.71;100601.88;10414596;28;20135;-80
2024/03/21 14:59:35;;;;;;;11.20;6.40;;;;;;;15.82;42.39;100605.31;10430956;28;20519;-80
2024/03/21 15:04:36;;;;;;;11.07;6.13;;;;;;;15.63;42.71;100599.66;10414928;28;20159;-80
2024/03/21 15:09:40;;;;;;;9.25;6.13;;;;;;;15.57;42.47;100607.97;10398709;28;20140;-80
2024/03/21 15:14:41;;;;;;;13.52;6.47;;;;;;;15.71;42.15;100602.59;10441153;28;20846;-80
2024/03/21 15:19:42;;;;;;;8.60;5.40;;;;;;;15.70;42.09;100613.22;10430689;28;20135;-80
2024/03/21 15:24:44;;;;;;;10.20;5.35;;;;;;;15.53;42.88;100618.84;10435268;28;20084;-80
2024/03/21 15:29:45;;;;;;;8.68;5.22;;;;;;;15.52;43.15;100614.50;10417625;28;20152;-79
2024/03/21 15:34:46;;;;;;;9.25;5.05;;;;;;;15.37;43.27;100619.88;10415169;28;20055;-80
2024/03/21 15:39:47;;;;;;;7.45;4.30;;;;;;;15.22;43.79;100623.56;10422426;28;20056;-80
2024/03/21 15:44:48;;;;;;;6.70;4.30;;;;;;;15.12;43.82;100629.56;10413419;28;20586;-80
2024/03/21 15:49:49;;;;;;;7.00;4.15;;;;;;;15.03;44.07;100636.28;10398475;28;20167;-80
2024/03/21 15:54:50;;;;;;;6.35;3.63;;;;;;;14.77;44.38;100646.84;10412820;28;20100;-80
2024/03/21 15:59:51;;;;;;;8.63;4.40;;;;;;;14.73;44.79;100643.59;10431518;28;20049;-80
2024/03/21 16:04:52;;;;;;;7.50;4.15;;;;;;;14.60;45.05;100647.94;10446317;28;20159;-80
2024/03/21 16:09:53;;;;;;;10.63;4.47;;;;;;;14.59;45.19;100646.28;10429306;28;20143;-80
2024/03/21 16:14:54;;;;;;;8.02;4.55;;;;;;;14.66;45.39;100651.97;10398018;28;20509;-80
2024/03/21 16:19:55;;;;;;;7.60;4.05;;;;;;;14.68;45.55;100655.34;10413203;28;20060;-80
2024/03/21 16:24:56;;;;;;;7.85;4.15;;;;;;;14.57;45.51;100656.06;10428086;28;20088;-80
2024/03/21 16:29:57;;;;;;;6.57;4.00;;;;;;;14.58;45.58;100658.59;10429557;28;20114;-80
2024/03/21 16:34:59;;;;;;;7.75;4.45;;;;;;;14.44;46.07;100660.38;10413467;28;20053;-80
2024/03/21 16:40:00;;;;;;;8.68;4.50;;;;;;;14.37;46.02;100662.56;10429463;28;20140;-80
2024/03/21 16:45:03;;;;;;;6.75;3.70;;;;;;;14.31;46.31;100657.69;10410039;28;20063;-80
2024/03/21 16:50:05;;;;;;;7.82;4.43;;;;;;;14.22;46.49;100663.53;10429144;28;20136;-80
2024/03/21 16:55:07;;;;;;;6.72;4.38;;;;;;;13.87;47.03;100662.25;10404998;28;20816;-80
2024/03/21 17:00:08;;;;;;;6.75;3.50;;;;;;;13.70;47.26;100662.44;10430446;28;20084;-81
2024/03/21 17:05:09;;;;;;;9.73;4.28;;;;;;;13.72;47.74;100660.56;10420328;28;20151;-81
2024/03/21 17:10:10;;;;;;;6.10;3.97;;;;;;;13.71;47.67;100653.63;10436583;28;20509;-81
2024/03/21 17:15:11;;;;;;;7.78;3.75;;;;;;;13.52;47.85;100667.03;10427222;28;20052;-80
2024/03/21 17:20:12;;;;;;;7.43;4.13;;;;;;;13.58;48.00;100676.31;10419405;28;20080;-79
2024/03/21 17:25:14;;;;;;;5.72;3.78;;;;;;;13.52;48.29;100671.44;10403060;28;20114;-79
2024/03/21 17:30:15;;;;;;;8.00;4.32;;;;;;;13.38;48.23;100674.00;10403233;28;20056;-79
2024/03/21 17:35:16;;;;;;;7.20;4.13;;;;;;;13.15;48.57;100687.69;10418956;28;20084;-79
2024/03/21 17:40:17;;;;;;;8.05;4.32;;;;;;;13.07;48.93;100693.34;10432847;28;20175;-79
2024/03/21 17:45:19;;;;;;;7.93;4.20;;;;;;;12.90;49.50;100704.00;10421212;28;20057;-79
2024/03/21 17:50:21;;;;;;;6.97;4.20;;;;;;;12.86;49.46;100703.31;10450338;28;20648;-79
2024/03/21 17:55:22;;;;;;;11.00;3.97;;;;;;;12.75;49.73;100700.47;10418069;28;20470;-80
2024/03/21 18:00:24;;;;;;;6.13;3.45;;;;;;;12.75;49.66;100710.09;10402309;28;20077;-79
2024/03/21 18:05:32;;;;;;;7.35;3.72;;;;;;;12.74;49.84;100709.25;10424322;28;20215;-79
2024/03/21 18:10:34;;;;;;;6.47;3.92;;;;;;;12.68;49.97;100712.22;10433106;28;20148;-79
2024/03/21 18:15:37;;;;;;;8.00;4.50;;;;;;;12.68;50.28;100720.09;10401204;28;20200;-79
2024/03/21 18:20:49;;;;;;;7.53;4.05;;;;;;;12.64;50.21;100712.50;10440234;28;20053;-79
2024/03/21 18:25:53;;;;;;;7.18;3.63;;;;;;;12.62;50.48;100714.38;10417712;28;20056;-79
2024/03/21 18:30:54;;;;;;;7.22;3.80;;;;;;;12.61;50.51;100717.91;10418654;28;20138;-79
2024/03/21 18:35:55;;;;;;;7.25;4.00;;;;;;;12.60;50.98;100714.44;10416010;28;20072;-80
2024/03/21 18:40:56;;;;;;;7.90;4.28;;;;;;;12.60;51.25;100716.22;10431824;28;20574;-80
2024/03/21 18:45:57;;;;;;;9.25;5.32;;;;;;;12.55;51.25;100713.84;10423329;28;20094;-79
2024/03/21 18:50:58;;;;;;;9.75;4.65;;;;;;;12.42;51.62;100706.72;10418477;28;20139;-79
2024/03/21 18:56:00;;;;;;;8.23;4.53;;;;;;;12.41;51.91;100713.78;10403460;28;20053;-79
2024/03/21 19:01:01;;;;;;;6.38;3.72;;;;;;;12.30;51.88;100713.50;10398539;28;20048;-79
2024/03/21 19:06:03;;;;;;;8.60;4.20;;;;;;;12.30;52.27;100710.88;10440337;28;20087;-79
2024/03/21 19:11:04;;;;;;;7.35;4.28;;;;;;;12.36;51.94;100707.06;10415821;28;20524;-78
2024/03/21 19:16:05;;;;;;;7.55;3.78;;;;;;;12.44;51.88;100704.84;10398841;28;20111;-79
2024/03/21 19:21:06;;;;;;;6.95;3.88;;;;;;;12.40;52.05;100704.19;10400401;28;21016;-78
2024/03/21 19:26:07;;;;;;;7.75;4.00;;;;;;;12.36;52.14;100692.16;10447846;28;20099;-79
2024/03/21 19:31:08;;;;;;;7.88;3.80;;;;;;;12.31;52.52;100688.97;10412688;28;20838;-78
2024/03/21 19:36:09;;;;;;;9.50;4.25;;;;;;;12.29;52.55;100690.84;10415018;28;20716;-78
2024/03/21 19:41:11;;;;;;;6.60;3.85;;;;;;;12.25;52.71;100680.56;10422360;28;20131;-79
2024/03/21 19:46:13;;;;;;;6.40;3.92;;;;;;;12.15;52.67;100667.06;10422649;28;20139;-78
2024/03/21 19:51:14;;;;;;;6.13;3.75;;;;;;;12.10;52.99;100674.38;10429604;28;20131;-78
2024/03/21 19:56:15;;;;;;;7.53;4.38;;;;;;;12.04;53.03;100688.66;10444141;28;20131;-79
2024/03/21 20:01:16;;;;;;;8.75;4.82;;;;;;;11.83;53.35;100691.56;10429626;28;20164;-79
2024/03/21 20:06:18;;;;;;;7.88;4.38;;;;;;;11.68;53.67;100701.06;10395573;28;20151;-79
2024/03/21 20:11:19;;;;;;;16.52;4.65;;;;;;;11.68;53.47;100705.47;10411642;28;20056;-78
2024/03/21 20:16:20;;;;;;;7.45;3.90;;;;;;;11.77;53.91;100704.97;10429512;28;20065;-79
2024/03/21 20:21:21;;;;;;;8.93;4.63;;;;;;;11.77;53.71;100708.47;10413158;28;20136;-79
2024/03/21 20:26:23;;;;;;;6.50;4.00;;;;;;;11.67;54.09;100717.72;10412584;28;20085;-79
2024/03/21 20:31:25;;;;;;;5.97;3.20;;;;;;;11.62;54.30;100717.09;10397671;28;20073;-79
2024/03/21 20:36:26;;;;;;;6.40;3.90;;;;;;;11.51;54.65;100715.97;10427904;28;20057;-79
2024/03/21 20:41:27;;;;;;;7.18;3.72;;;;;;;11.48;54.68;100722.19;10430261;28;20072;-79
2024/03/21 20:46:28;;;;;;;7.60;3.53;;;;;;;11.44;54.82;100732.94;10430770;28;20473;-79
2024/03/21 20:51:29;;;;;;;8.32;4.20;;;;;;;11.40;54.77;100739.25;10426956;28;20140;-79
2024/03/21 20:56:30;;;;;;;6.95;4.40;;;;;;;11.41;54.90;100743.56;10395867;28;20084;-79
2024/03/21 21:01:31;;;;;;;8.23;4.22;;;;;;;11.38;54.68;100746.34;10395556;28;20406;-78
2024/03/21 21:06:33;;;;;;;9.52;4.88;;;;;;;11.42;55.13;100737.41;10429226;28;20060;-77
2024/03/21 21:11:34;;;;;;;7.97;4.38;;;;;;;11.39;55.18;100734.94;10434755;28;20513;-77
2024/03/21 21:16:35;;;;;;;6.53;4.03;;;;;;;11.33;55.19;100733.47;10427543;28;20087;-77
2024/03/21 21:21:38;;;;;;;6.95;3.60;;;;;;;11.25;55.68;100733.00;10411663;28;20518;-77
2024/03/21 21:26:40;;;;;;;7.40;3.97;;;;;;;11.15;55.84;100724.75;10411432;28;20143;-77
2024/03/21 21:31:41;;;;;;;5.95;3.78;;;;;;;11.06;55.78;100719.13;10409940;28;20536;-78
2024/03/21 21:36:42;;;;;;;24.98;6.70;;;;;;;10.96;56.16;100707.38;10410450;28;20080;-77
2024/03/21 21:41:43;;;;;;;7.97;4.55;;;;;;;10.80;56.09;100696.81;10419290;28;20049;-77
2024/03/21 21:46:44;;;;;;;6.45;3.58;;;;;;;10.52;56.78;100692.03;10444020;28;20080;-77
2024/03/21 21:51:45;;;;;;;7.28;4.25;;;;;;;10.53;56.87;100692.91;10435355;28;20144;-77
2024/03/21 21:56:46;;;;;;;7.75;3.72;;;;;;;10.48;57.00;100684.44;10418149;28;20080;-77
2024/03/21 22:01:47;;;;;;;7.45;4.05;;;;;;;10.40;57.33;100687.41;10397491;28;20080;-77
2024/03/21 22:06:48;;;;;;;8.45;4.38;;;;;;;10.36;57.38;100698.91;10400148;28;20056;-76
2024/03/21 22:11:49;;;;;;;10.57;4.57;;;;;;;10.27;57.57;100703.75;10448624;28;20052;-77
2024/03/21 22:16:50;;;;;;;7.95;4.30;;;;;;;10.32;57.67;100686.91;10402204;28;20052;-77
2024/03/21 22:21:51;;;;;;;7.75;4.38;;;;;;;10.34;57.69;100679.84;10398783;28;20115;-77
2024/03/21 22:26:52;;;;;;;7.55;4.80;;;;;;;10.36;57.66;100682.38;10432537;28;21010;-77
2024/03/21 22:31:53;;;;;;;8.40;3.78;;;;;;;10.33;57.64;100683.38;10399899;28;20051;-77
2024/03/21 22:36:54;;;;;;;7.32;4.18;;;;;;;10.32;57.82;100672.97;10399431;28;20462;-77
2024/03/21 22:41:55;;;;;;;6.10;4.05;;;;;;;10.29;57.86;100666.16;10457249;28;20510;-77
2024/03/21 22:46:56;;;;;;;6.68;3.72;;;;;;;10.22;57.88;100664.72;10414263;28;20088;-77
2024/03/21 22:51:57;;;;;;;8.45;4.55;;;;;;;10.16;58.15;100661.53;10413933;28;20082;-77
2024/03/21 22:56:58;;;;;;;7.43;4.07;;;;;;;10.18;58.19;100651.88;10414852;28;20434;-77
2024/03/21 23:01:59;;;;;;;7.18;4.05;;;;;;;10.13;58.42;100656.47;10398066;28;20048;-77
2024/03/21 23:07:00;;;;;;;6.43;3.55;;;;;;;10.13;58.38;100651.25;10432654;28;20056;-77
2024/03/21 23:12:01;;;;;;;7.30;4.20;;;;;;;10.12;58.37;100639.94;10439250;28;20127;-77
2024/03/21 23:17:03;;;;;;;6.88;3.88;;;;;;;10.04;58.49;100639.44;10398434;28;20135;-77